Time;durP1;ratioP1;P1;durP2;ratioP2;P2;SDS_P1;SDS_P2;PMS_P1;PMS_P2;Temp;Humidity;BMP_temperature;BMP_pressure;BME280_temperature;BME280_humidity;BME280_pressure;Samples;Min_cycle;Max_cycle;Signal;HPM_P1;HPM_P2
2024/02/04 00:00:51;;;;;;;10.82;3.28;;;8.10;99.90;;;;;;5147921;27;20042;-75
2024/02/04 00:03:16;;;;;;;13.25;3.50;;;7.90;99.90;;;;;;5144314;27;20042;-75
2024/02/04 00:05:42;;;;;;;11.32;3.15;;;8.00;99.90;;;;;;5133362;27;21318;-75
2024/02/04 00:08:09;;;;;;;12.00;3.25;;;8.00;99.90;;;;;;5138915;27;20091;-75
2024/02/04 00:10:34;;;;;;;11.50;3.35;;;8.00;99.90;;;;;;5121673;27;20046;-75
2024/02/04 00:13:01;;;;;;;12.23;3.72;;;8.00;99.90;;;;;;5141819;27;20050;-75
2024/02/04 00:15:27;;;;;;;12.52;3.45;;;8.00;99.90;;;;;;5133673;27;20078;-75
2024/02/04 00:17:52;;;;;;;9.43;3.08;;;7.90;99.90;;;;;;5131919;27;20466;-75
2024/02/04 00:20:18;;;;;;;11.80;3.72;;;7.90;99.90;;;;;;5125774;27;20126;-75
2024/02/04 00:22:44;;;;;;;12.48;2.95;;;7.90;99.90;;;;;;5128809;27;20047;-75
2024/02/04 00:25:11;;;;;;;11.38;3.83;;;7.90;99.90;;;;;;5138169;27;20077;-75
2024/02/04 00:27:37;;;;;;;11.82;3.53;;;7.90;99.90;;;;;;5118259;27;20045;-75
2024/02/04 00:30:04;;;;;;;14.68;3.42;;;7.90;99.90;;;;;;5130839;27;20045;-75
2024/02/04 00:32:29;;;;;;;9.88;3.22;;;7.80;99.90;;;;;;5134605;27;20039;-75
2024/02/04 00:34:55;;;;;;;10.98;2.88;;;7.80;99.90;;;;;;5128489;27;20039;-74
2024/02/04 00:37:21;;;;;;;10.93;3.22;;;7.80;99.90;;;;;;5130850;27;20038;-75
2024/02/04 00:39:47;;;;;;;14.00;3.25;;;7.80;99.90;;;;;;5137718;27;20511;-74
2024/02/04 00:42:13;;;;;;;8.68;3.15;;;7.80;99.90;;;;;;5144113;27;20038;-75
2024/02/04 00:44:42;;;;;;;11.77;3.33;;;7.70;99.90;;;;;;5126493;27;20077;-74
2024/02/04 00:47:08;;;;;;;9.95;3.00;;;7.70;99.90;;;;;;5142894;27;20034;-75
2024/02/04 00:49:34;;;;;;;12.82;2.88;;;7.70;99.90;;;;;;5147006;27;20042;-74
2024/02/04 00:52:00;;;;;;;9.77;2.97;;;7.70;99.90;;;;;;5149306;27;20113;-75
2024/02/04 00:54:25;;;;;;;12.85;3.47;;;7.70;99.90;;;;;;5135724;27;20030;-75
2024/02/04 00:56:51;;;;;;;11.63;2.92;;;7.60;99.90;;;;;;5132243;27;20053;-75
2024/02/04 00:59:17;;;;;;;9.57;2.85;;;7.60;99.90;;;;;;5128461;27;20046;-75
2024/02/04 01:01:43;;;;;;;11.73;2.80;;;7.50;99.90;;;;;;5124275;27;20050;-75
2024/02/04 01:04:09;;;;;;;8.48;2.47;;;7.50;99.90;;;;;;5129754;27;20049;-77
2024/02/04 01:06:34;;;;;;;16.63;3.40;;;7.50;99.90;;;;;;5127067;27;20110;-75
2024/02/04 01:09:00;;;;;;;11.00;3.13;;;7.50;99.90;;;;;;5146526;27;20389;-74
2024/02/04 01:11:26;;;;;;;14.63;3.42;;;7.40;99.90;;;;;;5144887;27;20466;-80
2024/02/04 01:13:52;;;;;;;9.65;2.85;;;7.40;99.90;;;;;;5137450;27;20054;-80
2024/02/04 01:16:20;;;;;;;10.13;3.25;;;7.40;99.90;;;;;;5139853;27;20038;-81
2024/02/04 01:18:46;;;;;;;15.25;3.03;;;7.40;99.90;;;;;;5139787;27;20473;-81
2024/02/04 01:21:12;;;;;;;14.80;3.42;;;7.40;99.90;;;;;;5127779;27;20133;-82
2024/02/04 01:23:38;;;;;;;13.70;3.53;;;7.40;99.90;;;;;;5135302;27;20076;-82
2024/02/04 01:26:04;;;;;;;9.85;2.97;;;7.40;99.90;;;;;;5111821;27;21400;-81
2024/02/04 01:28:30;;;;;;;10.63;2.90;;;7.40;99.90;;;;;;5144390;27;20042;-81
2024/02/04 01:30:55;;;;;;;10.02;2.70;;;7.30;99.90;;;;;;5129893;27;20127;-81
2024/02/04 01:33:21;;;;;;;10.13;2.90;;;7.30;99.90;;;;;;5126933;27;20408;-81
2024/02/04 01:35:47;;;;;;;11.85;2.60;;;7.30;99.90;;;;;;5130170;27;20046;-81
2024/02/04 01:38:13;;;;;;;12.05;2.53;;;7.40;99.90;;;;;;5128706;27;20042;-81
2024/02/04 01:40:39;;;;;;;10.70;3.00;;;7.40;99.90;;;;;;5147019;27;20034;-81
2024/02/04 01:43:05;;;;;;;11.00;2.88;;;7.30;99.90;;;;;;5119366;27;20043;-82
2024/02/04 01:45:31;;;;;;;12.85;2.97;;;7.30;99.90;;;;;;5141874;27;20399;-81
2024/02/04 01:47:58;;;;;;;16.25;3.25;;;7.40;99.90;;;;;;5145968;27;20065;-81
2024/02/04 01:50:24;;;;;;;16.13;3.00;;;7.20;99.90;;;;;;5145702;27;20038;-81
2024/02/04 01:52:51;;;;;;;12.35;2.38;;;7.30;99.90;;;;;;5126453;27;20046;-81
2024/02/04 01:55:18;;;;;;;11.48;3.03;;;7.30;99.90;;;;;;5126188;27;20062;-81
2024/02/04 01:57:44;;;;;;;13.00;2.42;;;7.30;99.90;;;;;;5128824;27;20100;-81
2024/02/04 02:00:11;;;;;;;10.95;2.50;;;7.30;99.90;;;;;;5146827;27;20042;-81
2024/02/04 02:02:41;;;;;;;9.85;2.30;;;7.20;99.90;;;;;;5123083;27;20145;-81
2024/02/04 02:05:08;;;;;;;11.52;3.00;;;7.30;99.90;;;;;;5127025;27;20049;-81
2024/02/04 02:07:34;;;;;;;10.38;2.85;;;7.20;99.90;;;;;;5118871;27;20550;-81
2024/02/04 02:10:00;;;;;;;12.93;2.72;;;7.20;99.90;;;;;;5125370;27;20084;-81
2024/02/04 02:12:32;;;;;;;12.73;2.85;;;7.20;99.90;;;;;;5123186;27;20062;-82
2024/02/04 02:15:09;;;;;;;11.55;3.40;;;7.20;99.90;;;;;;5145848;27;20038;-81
2024/02/04 02:17:58;;;;;;;12.88;2.83;;;7.30;99.90;;;;;;5121517;27;20477;-81
2024/02/04 02:20:32;;;;;;;11.68;3.20;;;7.30;99.90;;;;;;5131715;27;20038;-81
2024/02/04 02:23:10;;;;;;;15.35;2.85;;;7.20;99.90;;;;;;5134330;27;20137;-81
2024/02/04 02:25:40;;;;;;;14.02;3.40;;;7.30;99.90;;;;;;5113046;27;20084;-81
2024/02/04 02:28:06;;;;;;;;;;;7.20;99.90;;;;;;5112980;27;20076;-81
2024/02/04 02:30:32;;;;;;;10.60;3.45;;;7.20;99.90;;;;;;5116201;27;19933;-81
2024/02/04 02:32:58;;;;;;;13.88;3.70;;;7.20;99.90;;;;;;5115116;27;20074;-81
2024/02/04 02:35:24;;;;;;;14.38;4.72;;;7.20;99.90;;;;;;5134323;27;20046;-80
2024/02/04 02:38:19;;;;;;;16.70;4.43;;;7.20;99.90;;;;;;5135570;27;20049;-81
2024/02/04 02:40:53;;;;;;;12.82;4.13;;;7.20;99.90;;;;;;5120303;27;20697;-80
2024/02/04 02:43:20;;;;;;;15.48;5.75;;;7.20;99.90;;;;;;5134829;27;20397;-81
2024/02/04 02:45:46;;;;;;;16.20;5.03;;;7.20;99.90;;;;;;5118299;27;20058;-80
2024/02/04 02:48:13;;;;;;;14.02;5.43;;;7.20;99.90;;;;;;5122931;27;20456;-81
2024/02/04 02:50:38;;;;;;;15.88;5.63;;;7.20;99.90;;;;;;5118946;27;20484;-81
2024/02/04 02:53:04;;;;;;;16.00;5.95;;;7.20;99.90;;;;;;5120808;27;20113;-81
2024/02/04 02:55:30;;;;;;;13.82;6.30;;;7.10;99.90;;;;;;5130678;27;20383;-81
2024/02/04 02:57:56;;;;;;;14.52;6.60;;;7.10;99.90;;;;;;5116359;27;20050;-82
2024/02/04 03:00:22;;;;;;;17.65;7.00;;;7.10;99.90;;;;;;5134584;27;20449;-81
2024/02/04 03:02:48;;;;;;;13.77;6.32;;;7.10;99.90;;;;;;5117912;27;20418;-81
2024/02/04 03:05:16;;;;;;;16.95;7.25;;;7.10;99.90;;;;;;5137195;27;20039;-81
2024/02/04 03:07:42;;;;;;;14.75;6.18;;;7.10;99.90;;;;;;5141468;27;20043;-81
2024/02/04 03:10:15;;;;;;;16.15;5.90;;;7.10;99.90;;;;;;5139673;27;20038;-82
2024/02/04 03:12:41;;;;;;;16.90;6.35;;;7.10;99.90;;;;;;5138972;27;20671;-80
2024/02/04 03:15:10;;;;;;;19.45;6.45;;;7.10;99.90;;;;;;5137538;27;20042;-80
2024/02/04 03:17:36;;;;;;;15.13;5.95;;;7.00;99.90;;;;;;5125799;27;20318;-80
2024/02/04 03:20:02;;;;;;;16.67;5.05;;;7.10;99.90;;;;;;5137645;27;20046;-80
2024/02/04 03:22:28;;;;;;;14.45;5.40;;;7.00;99.90;;;;;;5114585;27;20041;-80
2024/02/04 03:24:54;;;;;;;13.40;4.78;;;7.00;99.90;;;;;;5137289;27;20455;-80
2024/02/04 03:27:20;;;;;;;15.73;5.55;;;7.00;99.90;;;;;;5140784;27;20129;-75
2024/02/04 03:29:46;;;;;;;15.07;5.25;;;7.00;99.90;;;;;;5113347;27;20117;-76
2024/02/04 03:32:12;;;;;;;17.17;4.88;;;7.00;99.90;;;;;;5136491;27;20109;-76
2024/02/04 03:34:39;;;;;;;12.57;4.18;;;7.00;99.90;;;;;;5112295;27;20042;-75
2024/02/04 03:37:05;;;;;;;15.77;4.22;;;6.90;99.90;;;;;;5130339;27;20055;-75
2024/02/04 03:39:31;;;;;;;13.40;3.67;;;6.90;99.90;;;;;;5117178;27;20103;-75
2024/02/04 03:41:57;;;;;;;12.90;3.88;;;6.90;99.90;;;;;;5114020;27;20051;-75
2024/02/04 03:44:23;;;;;;;13.32;4.05;;;6.90;99.90;;;;;;5130952;27;20041;-74
2024/02/04 03:46:50;;;;;;;15.68;3.63;;;6.90;99.90;;;;;;5114770;27;20078;-75
2024/02/04 03:49:16;;;;;;;15.73;3.83;;;6.90;99.90;;;;;;5113747;27;20035;-75
2024/02/04 03:51:42;;;;;;;13.68;3.92;;;6.90;99.90;;;;;;5133602;27;20046;-75
2024/02/04 03:54:07;;;;;;;12.50;3.60;;;7.00;99.90;;;;;;5134012;27;20376;-75
2024/02/04 03:56:33;;;;;;;11.10;3.10;;;6.90;99.90;;;;;;5129399;27;20042;-75
2024/02/04 03:58:59;;;;;;;14.15;3.42;;;7.00;99.90;;;;;;5129873;27;20042;-74
2024/02/04 04:01:25;;;;;;;12.90;3.45;;;7.00;99.90;;;;;;5114490;27;20046;-75
2024/02/04 04:03:50;;;;;;;10.32;3.42;;;6.90;99.90;;;;;;5129071;27;20078;-75
2024/02/04 04:06:16;;;;;;;16.98;3.83;;;6.90;99.90;;;;;;5129949;27;20539;-74
2024/02/04 04:08:42;;;;;;;16.55;4.45;;;6.90;99.90;;;;;;5129733;27;20493;-75
2024/02/04 04:11:09;;;;;;;16.88;4.45;;;6.90;99.90;;;;;;5134029;27;20034;-74
2024/02/04 04:13:35;;;;;;;11.88;2.78;;;7.00;99.90;;;;;;5133965;27;20045;-75
2024/02/04 04:16:05;;;;;;;10.35;3.22;;;6.90;99.90;;;;;;5132283;27;20042;-74
2024/02/04 04:18:32;;;;;;;13.45;3.10;;;6.90;99.90;;;;;;5120467;27;20051;-74
2024/02/04 04:20:57;;;;;;;12.70;3.67;;;6.90;99.90;;;;;;5112567;27;20045;-74
2024/02/04 04:23:23;;;;;;;13.73;3.40;;;6.80;99.90;;;;;;5109840;27;20043;-74
2024/02/04 04:25:49;;;;;;;14.63;3.40;;;6.90;99.90;;;;;;5114319;27;20617;-75
2024/02/04 04:28:15;;;;;;;14.73;3.60;;;6.90;99.90;;;;;;5133038;27;20113;-75
2024/02/04 04:30:40;;;;;;;11.63;3.40;;;7.00;99.90;;;;;;5133204;27;20495;-75
2024/02/04 04:33:08;;;;;;;13.23;3.25;;;7.00;99.90;;;;;;5136546;27;20098;-75
2024/02/04 04:35:36;;;;;;;14.45;3.25;;;7.00;99.90;;;;;;5114193;27;20157;-75
2024/02/04 04:38:02;;;;;;;15.45;3.78;;;7.00;99.90;;;;;;5131170;27;20666;-75
2024/02/04 04:40:28;;;;;;;15.73;3.35;;;7.00;99.90;;;;;;5134248;27;20037;-75
2024/02/04 04:42:53;;;;;;;11.55;2.83;;;7.00;99.90;;;;;;5135395;27;20492;-75
2024/02/04 04:45:21;;;;;;;14.95;2.97;;;7.00;99.90;;;;;;5132205;27;20047;-75
2024/02/04 04:47:47;;;;;;;13.38;2.83;;;7.00;99.90;;;;;;5114115;27;20043;-76
2024/02/04 04:50:13;;;;;;;15.75;3.13;;;7.00;99.90;;;;;;5132708;27;20110;-75
2024/02/04 04:52:39;;;;;;;14.63;3.30;;;7.00;99.90;;;;;;5131184;27;20042;-75
2024/02/04 04:55:05;;;;;;;13.85;3.33;;;7.00;99.90;;;;;;5131231;27;20411;-74
2024/02/04 04:57:31;;;;;;;14.43;3.33;;;7.00;99.90;;;;;;5110984;27;20055;-75
2024/02/04 05:00:00;;;;;;;12.63;3.17;;;7.00;99.90;;;;;;5123705;27;20510;-74
2024/02/04 05:02:27;;;;;;;10.00;2.92;;;7.00;99.90;;;;;;5129215;27;20106;-75
2024/02/04 05:04:53;;;;;;;10.60;2.90;;;7.00;99.90;;;;;;5123332;27;20114;-74
2024/02/04 05:07:18;;;;;;;11.57;2.97;;;7.00;99.90;;;;;;5111505;27;20496;-75
2024/02/04 05:09:46;;;;;;;13.73;3.20;;;7.00;99.90;;;;;;5111645;27;20099;-74
2024/02/04 05:12:11;;;;;;;15.07;3.45;;;6.90;99.90;;;;;;5131288;27;20050;-80
2024/02/04 05:14:37;;;;;;;12.40;2.63;;;7.00;99.90;;;;;;5132498;27;20057;-81
2024/02/04 05:17:05;;;;;;;12.27;3.00;;;6.90;99.90;;;;;;5112552;27;20055;-80
2024/02/04 05:19:30;;;;;;;11.40;2.70;;;7.00;99.90;;;;;;5115452;27;20042;-80
2024/02/04 05:21:57;;;;;;;14.18;2.90;;;7.00;99.90;;;;;;5131621;27;20842;-80
2024/02/04 05:24:22;;;;;;;14.07;3.47;;;7.00;99.90;;;;;;5110354;27;20499;-80
2024/02/04 05:26:48;;;;;;;15.23;3.50;;;7.00;99.90;;;;;;5129681;27;20046;-79
2024/02/04 05:29:14;;;;;;;10.60;2.95;;;7.00;99.90;;;;;;5111764;27;20090;-80
2024/02/04 05:31:41;;;;;;;10.20;2.47;;;7.00;99.90;;;;;;5130732;27;20046;-80
2024/02/04 05:34:07;;;;;;;13.60;3.42;;;7.00;99.90;;;;;;5114523;27;20038;-80
2024/02/04 05:36:33;;;;;;;13.07;2.85;;;7.00;99.90;;;;;;5111160;27;20523;-80
2024/02/04 05:39:13;;;;;;;11.50;2.78;;;7.00;99.90;;;;;;5116796;27;20095;-80
2024/02/04 05:41:39;;;;;;;13.45;3.08;;;7.00;99.90;;;;;;5125229;27;20155;-80
2024/02/04 05:44:06;;;;;;;10.80;2.95;;;7.00;99.90;;;;;;5130179;27;20519;-81
2024/02/04 05:46:32;;;;;;;14.48;3.47;;;7.00;99.90;;;;;;5122098;27;20046;-81
2024/02/04 05:48:58;;;;;;;14.90;3.60;;;7.10;99.90;;;;;;5131881;27;20134;-80
2024/02/04 05:51:24;;;;;;;13.15;2.70;;;7.10;99.90;;;;;;5110435;27;20121;-80
2024/02/04 05:53:50;;;;;;;14.75;3.03;;;7.10;99.90;;;;;;5115856;27;20183;-81
2024/02/04 05:56:15;;;;;;;12.52;2.85;;;7.10;99.90;;;;;;5128105;27;20087;-81
2024/02/04 05:58:41;;;;;;;12.75;2.65;;;7.10;99.90;;;;;;5129364;27;20133;-79
2024/02/04 06:01:07;;;;;;;13.43;2.92;;;7.10;99.90;;;;;;5130606;27;20042;-81
2024/02/04 06:03:33;;;;;;;11.38;2.58;;;7.10;99.90;;;;;;5118335;27;20050;-81
2024/02/04 06:05:59;;;;;;;11.80;2.40;;;7.10;99.90;;;;;;5115294;27;20527;-82
2024/02/04 06:08:25;;;;;;;12.23;3.03;;;7.10;99.90;;;;;;5130105;27;20049;-82
2024/02/04 06:10:50;;;;;;;14.73;3.15;;;7.10;99.90;;;;;;5121982;27;21142;-81
2024/02/04 06:13:16;;;;;;;11.68;2.60;;;7.10;99.90;;;;;;5131626;27;20046;-81
2024/02/04 06:15:42;;;;;;;12.80;2.95;;;7.10;99.90;;;;;;5136261;27;20034;-81
2024/02/04 06:18:08;;;;;;;12.70;3.33;;;7.10;99.90;;;;;;5116404;27;20117;-79
2024/02/04 06:20:33;;;;;;;13.45;3.15;;;7.20;99.90;;;;;;5117160;27;20042;-82
2024/02/04 06:23:00;;;;;;;14.73;3.20;;;7.20;99.90;;;;;;5117017;27;20123;-81
2024/02/04 06:25:26;;;;;;;14.88;3.20;;;7.20;99.90;;;;;;5133704;27;20043;-81
2024/02/04 06:27:52;;;;;;;12.75;3.15;;;7.20;99.90;;;;;;5114849;27;20094;-82
2024/02/04 06:30:18;;;;;;;17.67;3.40;;;7.20;99.90;;;;;;5113053;27;20603;-80
2024/02/04 06:32:43;;;;;;;15.77;3.38;;;7.30;99.90;;;;;;5113978;27;20551;-81
2024/02/04 06:35:09;;;;;;;15.00;3.47;;;7.30;99.90;;;;;;5131296;27;20267;-79
2024/02/04 06:37:35;;;;;;;14.38;2.60;;;7.30;99.90;;;;;;5135108;27;20082;-79
2024/02/04 06:40:02;;;;;;;11.25;2.90;;;7.40;99.90;;;;;;5115198;27;20045;-80
2024/02/04 06:42:27;;;;;;;12.75;2.38;;;7.40;99.90;;;;;;5116927;27;20034;-81
2024/02/04 06:44:53;;;;;;;14.52;2.78;;;7.40;99.90;;;;;;5135126;27;20122;-81
2024/02/04 06:47:19;;;;;;;15.20;3.25;;;7.40;99.90;;;;;;5137937;27;20133;-79
2024/02/04 06:49:45;;;;;;;14.98;3.63;;;7.50;99.90;;;;;;5113237;27;20133;-80
2024/02/04 06:52:11;;;;;;;15.65;3.13;;;7.50;99.90;;;;;;5131539;27;20099;-79
2024/02/04 06:54:37;;;;;;;13.35;2.88;;;7.50;99.90;;;;;;5129750;27;20089;-79
2024/02/04 06:57:03;;;;;;;11.90;3.00;;;7.50;99.90;;;;;;5116048;27;20496;-79
2024/02/04 06:59:29;;;;;;;14.75;3.13;;;7.50;99.90;;;;;;5118837;27;20053;-81
2024/02/04 07:01:57;;;;;;;14.82;3.20;;;7.50;99.90;;;;;;5134496;27;20046;-81
2024/02/04 07:04:24;;;;;;;15.77;2.92;;;7.60;99.90;;;;;;5132243;27;20042;-79
2024/02/04 07:06:53;;;;;;;13.15;2.58;;;7.60;99.90;;;;;;5116380;27;20062;-79
2024/02/04 07:09:19;;;;;;;13.10;2.97;;;7.60;99.90;;;;;;5132827;27;20923;-80
2024/02/04 07:11:45;;;;;;;12.82;3.20;;;7.60;99.90;;;;;;5131435;27;21314;-79
2024/02/04 07:14:11;;;;;;;13.20;3.20;;;7.60;99.90;;;;;;5132379;27;20129;-80
2024/02/04 07:16:37;;;;;;;14.90;3.20;;;7.60;99.90;;;;;;5116205;27;20041;-79
2024/02/04 07:19:02;;;;;;;12.77;3.10;;;7.60;99.90;;;;;;5133674;27;20038;-80
2024/02/04 07:21:28;;;;;;;15.55;3.50;;;7.60;99.90;;;;;;5134065;27;20466;-80
2024/02/04 07:23:54;;;;;;;12.35;3.10;;;7.60;99.90;;;;;;5132937;27;20046;-79
2024/02/04 07:26:20;;;;;;;16.17;3.70;;;7.60;99.90;;;;;;5128149;27;20052;-80
2024/02/04 07:28:46;;;;;;;13.85;3.67;;;7.60;99.90;;;;;;5110075;27;20061;-81
2024/02/04 07:31:11;;;;;;;15.27;3.78;;;7.60;99.90;;;;;;5131579;27;20396;-80
2024/02/04 07:33:37;;;;;;;13.65;2.95;;;7.60;99.90;;;;;;5130489;27;20042;-79
2024/02/04 07:36:03;;;;;;;15.70;3.10;;;7.60;99.90;;;;;;5115450;27;20050;-79
2024/02/04 07:38:29;;;;;;;16.60;3.42;;;7.60;99.90;;;;;;5134901;27;20306;-80
2024/02/04 07:40:56;;;;;;;13.40;3.75;;;7.60;99.90;;;;;;5131967;27;20042;-79
2024/02/04 07:43:22;;;;;;;13.00;3.55;;;7.60;99.90;;;;;;5133242;27;20216;-79
2024/02/04 07:45:48;;;;;;;11.35;3.30;;;7.60;99.90;;;;;;5118002;27;20050;-79
2024/02/04 07:48:13;;;;;;;14.07;3.53;;;7.50;99.90;;;;;;5116029;27;20039;-79
2024/02/04 07:50:39;;;;;;;15.45;3.28;;;7.50;99.90;;;;;;5135629;27;20033;-78
2024/02/04 07:53:05;;;;;;;13.93;3.15;;;7.50;99.90;;;;;;5130739;27;20058;-79
2024/02/04 07:55:34;;;;;;;15.57;3.58;;;7.50;99.90;;;;;;5131377;27;20043;-79
2024/02/04 07:57:59;;;;;;;15.60;3.78;;;7.50;99.90;;;;;;5128919;27;20042;-79
2024/02/04 08:00:25;;;;;;;11.95;3.00;;;7.50;99.90;;;;;;5120253;27;20046;-79
2024/02/04 08:02:51;;;;;;;13.60;3.55;;;7.60;99.90;;;;;;5132525;27;20099;-79
2024/02/04 08:05:17;;;;;;;15.48;3.25;;;7.60;99.90;;;;;;5131214;27;20050;-80
2024/02/04 08:07:43;;;;;;;12.10;3.33;;;7.60;99.90;;;;;;5133493;27;20056;-77
2024/02/04 08:10:09;;;;;;;13.77;3.35;;;7.60;99.90;;;;;;5132135;27;20579;-79
2024/02/04 08:12:35;;;;;;;12.82;3.83;;;7.70;99.90;;;;;;5111775;27;20129;-80
2024/02/04 08:15:04;;;;;;;14.13;4.20;;;7.70;99.90;;;;;;5130430;27;20149;-79
2024/02/04 08:17:30;;;;;;;12.48;3.45;;;7.70;99.90;;;;;;5138673;27;20085;-79
2024/02/04 08:19:59;;;;;;;11.85;3.00;;;7.80;99.90;;;;;;5130997;27;20082;-80
2024/02/04 08:22:25;;;;;;;13.18;3.13;;;7.80;99.90;;;;;;5130965;27;20035;-80
2024/02/04 08:24:51;;;;;;;9.27;3.05;;;7.90;99.90;;;;;;5126656;27;20107;-79
2024/02/04 08:27:17;;;;;;;10.20;2.80;;;7.90;99.90;;;;;;5113239;27;20516;-77
2024/02/04 08:29:44;;;;;;;11.00;3.63;;;8.00;99.90;;;;;;5115261;27;20057;-79
2024/02/04 08:32:10;;;;;;;11.35;3.40;;;8.10;99.90;;;;;;5130207;27;20129;-78
2024/02/04 08:34:36;;;;;;;10.50;3.40;;;8.10;99.90;;;;;;5116199;27;20053;-78
2024/02/04 08:37:03;;;;;;;11.30;3.42;;;8.20;99.90;;;;;;5116048;27;20496;-79
2024/02/04 08:39:29;;;;;;;13.57;3.90;;;8.20;99.90;;;;;;5135294;27;20038;-80
2024/02/04 08:41:55;;;;;;;11.32;3.60;;;8.30;99.90;;;;;;5112874;27;20045;-80
2024/02/04 08:44:21;;;;;;;10.02;2.90;;;8.30;99.90;;;;;;5131690;27;20030;-80
2024/02/04 08:46:47;;;;;;;11.75;2.92;;;8.30;99.90;;;;;;5132285;27;20046;-81
2024/02/04 08:49:13;;;;;;;12.32;3.60;;;8.40;99.90;;;;;;5112546;27;20042;-81
2024/02/04 08:51:38;;;;;;;11.10;3.15;;;8.30;99.90;;;;;;5131187;27;20073;-80
2024/02/04 08:54:04;;;;;;;9.40;2.97;;;8.40;99.90;;;;;;5131500;27;20069;-76
2024/02/04 08:56:30;;;;;;;12.13;2.88;;;8.40;99.90;;;;;;5131553;27;20082;-75
2024/02/04 08:58:56;;;;;;;13.80;3.90;;;8.40;99.90;;;;;;5133193;27;20556;-75
2024/02/04 09:01:22;;;;;;;11.43;3.00;;;8.50;99.90;;;;;;5112566;27;20038;-75
2024/02/04 09:03:48;;;;;;;13.70;3.30;;;8.50;99.90;;;;;;5114927;27;20470;-76
2024/02/04 09:06:16;;;;;;;10.93;3.05;;;8.50;99.90;;;;;;5113145;27;20031;-75
2024/02/04 09:08:42;;;;;;;9.68;2.75;;;8.50;99.90;;;;;;5108699;27;20043;-76
2024/02/04 09:11:08;;;;;;;10.57;2.65;;;8.50;99.90;;;;;;5122292;27;20050;-76
2024/02/04 09:13:34;;;;;;;11.98;3.08;;;8.50;99.90;;;;;;5129082;27;20043;-74
2024/02/04 09:16:00;;;;;;;11.82;2.83;;;8.50;99.90;;;;;;5112706;27;20038;-75
2024/02/04 09:18:29;;;;;;;9.48;2.58;;;8.60;99.90;;;;;;5114589;27;20057;-75
2024/02/04 09:20:55;;;;;;;12.23;2.83;;;8.60;99.90;;;;;;5128693;27;20053;-75
2024/02/04 09:23:21;;;;;;;10.85;3.08;;;8.60;99.90;;;;;;5129084;27;20030;-75
2024/02/04 09:25:47;;;;;;;14.50;3.10;;;8.60;99.90;;;;;;5147519;27;20046;-74
2024/02/04 09:28:12;;;;;;;11.43;2.78;;;8.60;99.90;;;;;;5112708;27;20501;-75
2024/02/04 09:30:38;;;;;;;12.23;2.90;;;8.60;99.90;;;;;;5131372;27;20880;-74
2024/02/04 09:33:04;;;;;;;10.90;2.80;;;8.70;99.90;;;;;;5130456;27;20046;-74
2024/02/04 09:35:30;;;;;;;9.77;2.58;;;8.70;99.90;;;;;;5128666;27;20039;-75
2024/02/04 09:37:55;;;;;;;12.88;3.33;;;8.70;99.90;;;;;;5111388;27;20730;-74
2024/02/04 09:40:22;;;;;;;10.52;2.60;;;8.80;99.90;;;;;;5116306;27;20030;-75
2024/02/04 09:42:48;;;;;;;11.77;2.38;;;8.80;99.90;;;;;;5124399;27;20450;-75
2024/02/04 09:45:15;;;;;;;9.10;2.55;;;8.80;99.90;;;;;;5116438;27;20042;-74
2024/02/04 09:47:44;;;;;;;9.93;2.65;;;8.90;99.90;;;;;;5132190;27;20096;-75
2024/02/04 09:50:10;;;;;;;10.80;3.03;;;8.90;99.90;;;;;;5133744;27;20079;-75
2024/02/04 09:52:39;;;;;;;8.05;2.50;;;8.90;99.90;;;;;;5139650;27;20391;-74
2024/02/04 09:55:06;;;;;;;9.05;2.67;;;9.00;99.90;;;;;;5135445;27;20100;-75
2024/02/04 09:57:34;;;;;;;9.80;2.25;;;8.90;99.90;;;;;;5118752;27;20034;-75
2024/02/04 10:00:08;;;;;;;11.20;2.33;;;9.00;99.90;;;;;;5117204;27;20153;-75
2024/02/04 10:02:34;;;;;;;10.25;2.58;;;9.00;99.90;;;;;;5135137;27;20057;-75
2024/02/04 10:05:00;;;;;;;11.63;2.55;;;9.00;99.90;;;;;;5134586;27;20043;-74
2024/02/04 10:07:26;;;;;;;8.23;2.10;;;8.90;99.90;;;;;;5137737;27;20034;-74
2024/02/04 10:09:52;;;;;;;10.05;2.10;;;9.10;99.90;;;;;;5116713;27;20042;-75
2024/02/04 10:12:18;;;;;;;7.38;2.28;;;9.20;99.90;;;;;;5113912;27;20031;-75
2024/02/04 10:14:44;;;;;;;9.65;2.45;;;9.20;99.90;;;;;;5117060;27;20047;-75
2024/02/04 10:17:11;;;;;;;7.50;2.00;;;9.20;99.90;;;;;;5135764;27;20049;-75
2024/02/04 10:19:37;;;;;;;11.35;2.28;;;9.20;99.90;;;;;;5131220;27;20046;-81
2024/02/04 10:22:03;;;;;;;8.73;1.75;;;9.30;99.90;;;;;;5134300;27;20081;-81
2024/02/04 10:24:30;;;;;;;7.13;2.13;;;9.30;99.90;;;;;;5139491;27;20396;-78
2024/02/04 10:26:56;;;;;;;8.52;1.88;;;9.40;99.90;;;;;;5134559;27;20050;-80
2024/02/04 10:29:25;;;;;;;7.93;1.80;;;9.50;99.90;;;;;;5152381;27;20901;-81
2024/02/04 10:31:57;;;;;;;9.90;2.20;;;9.50;99.90;;;;;;5135425;27;20563;-81
2024/02/04 10:34:27;;;;;;;8.93;2.30;;;9.50;99.90;;;;;;5136884;27;20575;-77
2024/02/04 10:36:53;;;;;;;8.25;2.05;;;9.50;99.90;;;;;;5116470;27;20042;-82
2024/02/04 10:39:18;;;;;;;5.07;1.80;;;9.50;99.90;;;;;;5136593;27;20042;-80
2024/02/04 10:41:53;;;;;;;8.45;2.22;;;9.50;99.90;;;;;;5112310;27;20056;-82
2024/02/04 10:44:24;;;;;;;7.63;2.30;;;9.50;99.90;;;;;;5132953;27;20103;-82
2024/02/04 10:46:51;;;;;;;7.50;2.15;;;9.50;99.90;;;;;;5127671;27;20036;-79
2024/02/04 10:49:19;;;;;;;8.55;2.50;;;9.50;99.90;;;;;;5112628;27;20034;-80
2024/02/04 10:51:46;;;;;;;8.48;2.28;;;9.60;99.90;;;;;;5130250;27;20043;-81
2024/02/04 10:54:18;;;;;;;5.65;1.33;;;9.60;99.90;;;;;;5133247;27;20054;-80
2024/02/04 10:56:46;;;;;;;7.85;1.80;;;9.60;99.90;;;;;;5122064;27;20073;-82
2024/02/04 10:59:17;;;;;;;8.32;2.33;;;9.70;99.90;;;;;;5117896;27;20042;-81
2024/02/04 11:01:43;;;;;;;6.82;2.05;;;9.70;99.90;;;;;;5135032;27;20090;-81
2024/02/04 11:04:13;;;;;;;7.72;2.00;;;9.70;99.90;;;;;;5136876;27;20057;-81
2024/02/04 11:06:42;;;;;;;7.20;2.28;;;9.80;99.90;;;;;;5135801;27;20041;-82
2024/02/04 11:09:09;;;;;;;10.75;2.00;;;9.80;99.90;;;;;;5130200;27;20107;-79
2024/02/04 11:11:37;;;;;;;8.63;2.20;;;9.80;99.90;;;;;;5115507;27;20034;-80
2024/02/04 11:14:09;;;;;;;4.80;1.33;;;9.80;99.90;;;;;;5116391;27;20488;-78
2024/02/04 11:16:44;;;;;;;6.30;1.88;;;9.80;99.90;;;;;;5117596;27;20034;-80
2024/02/04 11:19:44;;;;;;;5.88;1.88;;;9.80;99.90;;;;;;5132497;27;20038;-82
2024/02/04 11:22:40;;;;;;;5.32;1.83;;;9.80;99.90;;;;;;5132855;27;20047;-81
2024/02/04 11:25:09;;;;;;;4.63;1.92;;;9.80;99.90;;;;;;5118488;27;20492;-82
2024/02/04 11:27:35;;;;;;;7.10;2.00;;;9.80;99.90;;;;;;5140651;27;20053;-81
2024/02/04 11:30:01;;;;;;;8.95;2.75;;;9.80;99.90;;;;;;5134992;27;20046;-74
2024/02/04 11:32:28;;;;;;;7.10;2.20;;;9.80;99.90;;;;;;5134522;27;20050;-75
2024/02/04 11:35:00;;;;;;;8.82;2.63;;;9.80;99.90;;;;;;5117561;27;20515;-76
2024/02/04 11:37:27;;;;;;;7.30;2.72;;;9.80;99.90;;;;;;5132699;27;20504;-75
2024/02/04 11:39:55;;;;;;;5.22;1.65;;;9.90;99.90;;;;;;5119139;27;20042;-75
2024/02/04 11:42:41;;;;;;;5.25;2.05;;;9.80;99.90;;;;;;5119426;27;20034;-75
2024/02/04 11:45:08;;;;;;;5.50;1.85;;;9.90;99.90;;;;;;5120099;27;20042;-75
2024/02/04 11:47:35;;;;;;;6.65;2.17;;;9.90;99.90;;;;;;5118300;27;20034;-74
2024/02/04 11:50:01;;;;;;;7.85;2.30;;;9.90;99.90;;;;;;5133660;27;20129;-74
2024/02/04 11:52:28;;;;;;;4.20;1.45;;;9.90;99.90;;;;;;5120538;27;20042;-75
2024/02/04 11:54:54;;;;;;;5.07;1.75;;;10.00;99.90;;;;;;5117306;27;20037;-75
2024/02/04 11:57:20;;;;;;;3.72;1.65;;;9.90;99.90;;;;;;5116569;27;20529;-74
2024/02/04 11:59:47;;;;;;;6.68;1.80;;;10.00;99.90;;;;;;5131913;27;20400;-76
2024/02/04 12:02:17;;;;;;;5.18;2.00;;;10.00;99.90;;;;;;5133463;27;20038;-76
2024/02/04 12:04:46;;;;;;;6.63;2.20;;;10.00;99.90;;;;;;5113911;27;20053;-76
2024/02/04 12:07:14;;;;;;;5.35;2.17;;;10.00;99.90;;;;;;5109970;27;20035;-76
2024/02/04 12:09:41;;;;;;;5.10;1.95;;;10.00;99.90;;;;;;5116276;27;20415;-75
2024/02/04 12:12:07;;;;;;;6.97;2.17;;;10.00;99.90;;;;;;5133813;27;20053;-75
2024/02/04 12:14:35;;;;;;;6.82;1.88;;;10.00;99.90;;;;;;5112992;27;20504;-76
2024/02/04 12:17:10;;;;;;;5.90;1.88;;;10.00;99.90;;;;;;5134833;27;20054;-76
2024/02/04 12:19:39;;;;;;;7.95;2.03;;;10.00;99.90;;;;;;5134131;27;20046;-76
2024/02/04 12:22:09;;;;;;;7.60;2.25;;;10.00;99.90;;;;;;5116926;27;20504;-76
2024/02/04 12:24:37;;;;;;;7.82;2.30;;;9.90;99.90;;;;;;5115996;27;20129;-76
2024/02/04 12:27:04;;;;;;;5.32;1.88;;;10.00;99.90;;;;;;5136178;27;20046;-74
2024/02/04 12:29:30;;;;;;;6.70;2.08;;;10.00;99.90;;;;;;5131251;27;20113;-74
2024/02/04 12:32:00;;;;;;;7.10;1.85;;;10.00;99.90;;;;;;5115755;27;20034;-75
2024/02/04 12:34:26;;;;;;;;;;;10.00;99.90;;;;;;5117204;27;20035;-75
2024/02/04 12:37:00;;;;;;;8.32;1.80;;;10.00;99.90;;;;;;5133684;27;19923;-75
2024/02/04 12:39:26;;;;;;;6.03;1.65;;;9.90;99.90;;;;;;5131333;27;20049;-75
2024/02/04 12:41:55;;;;;;;7.82;1.88;;;9.90;99.90;;;;;;5119382;27;20127;-75
2024/02/04 12:44:22;;;;;;;6.50;1.50;;;9.90;99.90;;;;;;5120984;27;20137;-77
2024/02/04 12:46:52;;;;;;;5.75;1.40;;;9.90;99.90;;;;;;5118098;27;20128;-75
2024/02/04 12:49:23;;;;;;;4.50;1.33;;;9.90;99.90;;;;;;5131364;27;20057;-75